sensor_id;sensor_type;location;lat;lon;timestamp;temperature;humidity
56322;DHT22;42227;6.376;-10.782;2024-01-11T00:00:49;28.60;1.00
56322;DHT22;42227;6.376;-10.782;2024-01-11T00:03:17;28.60;1.00
56322;DHT22;42227;6.376;-10.782;2024-01-11T00:05:46;28.50;16.30
56322;DHT22;42227;6.376;-10.782;2024-01-11T00:08:14;28.40;1.00
56322;DHT22;42227;6.376;-10.782;2024-01-11T00:10:43;28.30;21.80
56322;DHT22;42227;6.376;-10.782;2024-01-11T00:13:11;28.20;48.20
56322;DHT22;42227;6.376;-10.782;2024-01-11T00:15:39;28.20;54.00
56322;DHT22;42227;6.376;-10.782;2024-01-11T00:18:08;28.20;55.20
56322;DHT22;42227;6.376;-10.782;2024-01-11T00:20:36;28.20;66.30
56322;DHT22;42227;6.376;-10.782;2024-01-11T00:23:05;28.20;76.80
56322;DHT22;42227;6.376;-10.782;2024-01-11T00:25:34;28.30;55.30
56322;DHT22;42227;6.376;-10.782;2024-01-11T00:28:02;28.40;27.50
56322;DHT22;42227;6.376;-10.782;2024-01-11T00:30:31;28.40;5.10
56322;DHT22;42227;6.376;-10.782;2024-01-11T00:32:59;28.30;13.50
56322;DHT22;42227;6.376;-10.782;2024-01-11T00:35:28;28.30;21.70
56322;DHT22;42227;6.376;-10.782;2024-01-11T00:37:56;28.20;32.70
56322;DHT22;42227;6.376;-10.782;2024-01-11T00:40:25;28.30;48.60
56322;DHT22;42227;6.376;-10.782;2024-01-11T00:42:53;28.40;21.20
56322;DHT22;42227;6.376;-10.782;2024-01-11T00:45:21;28.50;1.00
56322;DHT22;42227;6.376;-10.782;2024-01-11T00:47:50;28.60;1.00
56322;DHT22;42227;6.376;-10.782;2024-01-11T00:50:18;28.60;1.00
56322;DHT22;42227;6.376;-10.782;2024-01-11T00:52:47;28.70;1.00
56322;DHT22;42227;6.376;-10.782;2024-01-11T00:55:15;28.60;1.00
56322;DHT22;42227;6.376;-10.782;2024-01-11T00:57:43;28.60;1.00
56322;DHT22;42227;6.376;-10.782;2024-01-11T01:00:12;28.60;1.00
56322;DHT22;42227;6.376;-10.782;2024-01-11T01:02:41;28.60;1.00
56322;DHT22;42227;6.376;-10.782;2024-01-11T01:05:09;28.60;1.00
56322;DHT22;42227;6.376;-10.782;2024-01-11T01:07:38;28.50;1.00
56322;DHT22;42227;6.376;-10.782;2024-01-11T01:10:07;28.40;1.00
56322;DHT22;42227;6.376;-10.782;2024-01-11T01:12:35;28.40;1.00
56322;DHT22;42227;6.376;-10.782;2024-01-11T01:15:04;28.50;1.00
56322;DHT22;42227;6.376;-10.782;2024-01-11T01:17:32;28.40;1.00
56322;DHT22;42227;6.376;-10.782;2024-01-11T01:20:01;28.30;9.70
56322;DHT22;42227;6.376;-10.782;2024-01-11T01:22:30;28.30;95.20
56322;DHT22;42227;6.376;-10.782;2024-01-11T01:24:58;28.20;99.90
56322;DHT22;42227;6.376;-10.782;2024-01-11T01:27:27;28.10;99.90
56322;DHT22;42227;6.376;-10.782;2024-01-11T01:29:55;28.00;99.90
56322;DHT22;42227;6.376;-10.782;2024-01-11T01:32:23;28.00;99.90
56322;DHT22;42227;6.376;-10.782;2024-01-11T01:34:52;28.10;1.00
56322;DHT22;42227;6.376;-10.782;2024-01-11T01:37:20;28.20;1.00
56322;DHT22;42227;6.376;-10.782;2024-01-11T01:39:49;28.20;1.00
56322;DHT22;42227;6.376;-10.782;2024-01-11T01:42:17;28.10;1.00
56322;DHT22;42227;6.376;-10.782;2024-01-11T01:44:45;28.00;1.00
56322;DHT22;42227;6.376;-10.782;2024-01-11T01:47:14;28.00;1.00
56322;DHT22;42227;6.376;-10.782;2024-01-11T01:49:43;28.00;1.00
56322;DHT22;42227;6.376;-10.782;2024-01-11T01:52:13;28.00;1.00
56322;DHT22;42227;6.376;-10.782;2024-01-11T01:54:43;28.10;1.00
56322;DHT22;42227;6.376;-10.782;2024-01-11T01:57:12;28.10;1.00
56322;DHT22;42227;6.376;-10.782;2024-01-11T01:59:41;28.10;1.00
56322;DHT22;42227;6.376;-10.782;2024-01-11T02:02:11;28.20;1.00
56322;DHT22;42227;6.376;-10.782;2024-01-11T02:04:40;28.20;1.00
56322;DHT22;42227;6.376;-10.782;2024-01-11T02:07:09;28.30;1.00
56322;DHT22;42227;6.376;-10.782;2024-01-11T02:09:37;28.30;1.00
56322;DHT22;42227;6.376;-10.782;2024-01-11T02:12:06;28.30;1.00
56322;DHT22;42227;6.376;-10.782;2024-01-11T02:14:37;28.30;99.90
56322;DHT22;42227;6.376;-10.782;2024-01-11T02:17:06;28.30;99.90
56322;DHT22;42227;6.376;-10.782;2024-01-11T02:19:34;28.40;99.90
56322;DHT22;42227;6.376;-10.782;2024-01-11T02:22:15;28.50;99.90
56322;DHT22;42227;6.376;-10.782;2024-01-11T02:24:46;28.30;99.90
56322;DHT22;42227;6.376;-10.782;2024-01-11T02:27:14;28.20;99.90
56322;DHT22;42227;6.376;-10.782;2024-01-11T02:29:42;28.10;99.90
56322;DHT22;42227;6.376;-10.782;2024-01-11T02:32:11;28.00;99.90
56322;DHT22;42227;6.376;-10.782;2024-01-11T02:34:40;28.00;99.90
56322;DHT22;42227;6.376;-10.782;2024-01-11T02:37:08;28.00;99.90
56322;DHT22;42227;6.376;-10.782;2024-01-11T02:39:37;28.00;99.90
56322;DHT22;42227;6.376;-10.782;2024-01-11T02:42:06;28.00;99.90
56322;DHT22;42227;6.376;-10.782;2024-01-11T02:44:34;28.10;99.90
56322;DHT22;42227;6.376;-10.782;2024-01-11T02:47:03;28.30;99.90
56322;DHT22;42227;6.376;-10.782;2024-01-11T02:49:31;28.30;99.90
56322;DHT22;42227;6.376;-10.782;2024-01-11T02:51:59;28.20;99.90
56322;DHT22;42227;6.376;-10.782;2024-01-11T02:54:28;28.10;99.90
56322;DHT22;42227;6.376;-10.782;2024-01-11T02:56:56;28.00;99.90
56322;DHT22;42227;6.376;-10.782;2024-01-11T02:59:25;28.00;99.90
56322;DHT22;42227;6.376;-10.782;2024-01-11T03:01:53;28.10;99.90
56322;DHT22;42227;6.376;-10.782;2024-01-11T03:04:21;28.10;99.90
56322;DHT22;42227;6.376;-10.782;2024-01-11T03:06:50;28.00;99.90
56322;DHT22;42227;6.376;-10.782;2024-01-11T03:09:18;28.10;99.90
56322;DHT22;42227;6.376;-10.782;2024-01-11T03:11:47;28.10;99.90
56322;DHT22;42227;6.376;-10.782;2024-01-11T03:14:15;28.10;99.90
56322;DHT22;42227;6.376;-10.782;2024-01-11T03:16:43;28.20;99.90
56322;DHT22;42227;6.376;-10.782;2024-01-11T03:19:12;28.10;99.90
56322;DHT22;42227;6.376;-10.782;2024-01-11T03:21:45;28.10;99.90
56322;DHT22;42227;6.376;-10.782;2024-01-11T03:24:13;28.10;99.90
56322;DHT22;42227;6.376;-10.782;2024-01-11T03:26:42;28.00;99.90
56322;DHT22;42227;6.376;-10.782;2024-01-11T03:29:10;28.00;99.90
56322;DHT22;42227;6.376;-10.782;2024-01-11T03:31:39;28.00;99.90
56322;DHT22;42227;6.376;-10.782;2024-01-11T03:34:08;28.00;99.90
56322;DHT22;42227;6.376;-10.782;2024-01-11T03:36:36;27.90;99.90
56322;DHT22;42227;6.376;-10.782;2024-01-11T03:39:04;27.70;99.90
56322;DHT22;42227;6.376;-10.782;2024-01-11T03:41:33;27.60;1.00
56322;DHT22;42227;6.376;-10.782;2024-01-11T03:44:01;27.60;1.00
56322;DHT22;42227;6.376;-10.782;2024-01-11T03:46:30;27.60;1.00
56322;DHT22;42227;6.376;-10.782;2024-01-11T03:48:58;27.60;1.00
56322;DHT22;42227;6.376;-10.782;2024-01-11T03:51:26;27.50;1.00
56322;DHT22;42227;6.376;-10.782;2024-01-11T03:53:55;27.50;1.00
56322;DHT22;42227;6.376;-10.782;2024-01-11T03:56:23;27.60;1.00
56322;DHT22;42227;6.376;-10.782;2024-01-11T03:58:52;27.50;1.00
56322;DHT22;42227;6.376;-10.782;2024-01-11T04:01:20;27.50;1.00
56322;DHT22;42227;6.376;-10.782;2024-01-11T04:03:49;27.50;1.00
56322;DHT22;42227;6.376;-10.782;2024-01-11T04:06:21;27.40;1.00
56322;DHT22;42227;6.376;-10.782;2024-01-11T04:08:51;27.50;65.00
56322;DHT22;42227;6.376;-10.782;2024-01-11T04:11:19;27.50;66.90
56322;DHT22;42227;6.376;-10.782;2024-01-11T04:13:47;27.50;61.50
56322;DHT22;42227;6.376;-10.782;2024-01-11T04:16:16;27.60;26.00
56322;DHT22;42227;6.376;-10.782;2024-01-11T04:18:44;27.60;1.00
56322;DHT22;42227;6.376;-10.782;2024-01-11T04:21:27;27.70;1.00
56322;DHT22;42227;6.376;-10.782;2024-01-11T04:23:56;27.60;1.00
56322;DHT22;42227;6.376;-10.782;2024-01-11T04:26:24;27.60;1.00
56322;DHT22;42227;6.376;-10.782;2024-01-11T04:28:53;27.60;1.00
56322;DHT22;42227;6.376;-10.782;2024-01-11T04:31:26;27.50;1.00
56322;DHT22;42227;6.376;-10.782;2024-01-11T04:33:55;27.50;1.00
56322;DHT22;42227;6.376;-10.782;2024-01-11T04:36:24;27.60;1.00
56322;DHT22;42227;6.376;-10.782;2024-01-11T04:38:57;27.50;1.00
56322;DHT22;42227;6.376;-10.782;2024-01-11T04:41:26;27.50;1.30
56322;DHT22;42227;6.376;-10.782;2024-01-11T04:43:54;27.30;41.60
56322;DHT22;42227;6.376;-10.782;2024-01-11T04:46:23;27.20;99.90
56322;DHT22;42227;6.376;-10.782;2024-01-11T04:48:51;27.10;99.90
56322;DHT22;42227;6.376;-10.782;2024-01-11T04:51:20;27.20;99.90
56322;DHT22;42227;6.376;-10.782;2024-01-11T04:53:48;27.20;99.90
56322;DHT22;42227;6.376;-10.782;2024-01-11T04:56:17;27.00;99.90
56322;DHT22;42227;6.376;-10.782;2024-01-11T04:58:46;27.00;99.90
56322;DHT22;42227;6.376;-10.782;2024-01-11T05:01:16;27.10;99.90
56322;DHT22;42227;6.376;-10.782;2024-01-11T05:03:46;27.00;99.90
56322;DHT22;42227;6.376;-10.782;2024-01-11T05:06:18;27.00;99.90
56322;DHT22;42227;6.376;-10.782;2024-01-11T05:08:48;27.00;99.90
56322;DHT22;42227;6.376;-10.782;2024-01-11T05:11:23;27.10;99.90
56322;DHT22;42227;6.376;-10.782;2024-01-11T05:13:53;27.10;99.90
56322;DHT22;42227;6.376;-10.782;2024-01-11T05:16:23;27.10;99.90
56322;DHT22;42227;6.376;-10.782;2024-01-11T05:18:53;27.30;99.90
56322;DHT22;42227;6.376;-10.782;2024-01-11T05:21:23;27.50;99.90
56322;DHT22;42227;6.376;-10.782;2024-01-11T05:23:51;27.60;36.80
56322;DHT22;42227;6.376;-10.782;2024-01-11T05:26:20;27.60;4.40
56322;DHT22;42227;6.376;-10.782;2024-01-11T05:28:49;27.60;1.00
56322;DHT22;42227;6.376;-10.782;2024-01-11T05:31:17;27.60;1.00
56322;DHT22;42227;6.376;-10.782;2024-01-11T05:33:46;27.60;1.00
56322;DHT22;42227;6.376;-10.782;2024-01-11T05:36:15;27.50;1.00
56322;DHT22;42227;6.376;-10.782;2024-01-11T05:38:45;27.40;42.30
56322;DHT22;42227;6.376;-10.782;2024-01-11T05:41:15;27.30;99.90
56322;DHT22;42227;6.376;-10.782;2024-01-11T05:43:44;27.30;99.90
56322;DHT22;42227;6.376;-10.782;2024-01-11T05:46:12;27.20;99.90
56322;DHT22;42227;6.376;-10.782;2024-01-11T05:48:42;27.20;99.90
56322;DHT22;42227;6.376;-10.782;2024-01-11T05:51:11;27.20;99.90
56322;DHT22;42227;6.376;-10.782;2024-01-11T05:53:39;27.20;99.90
56322;DHT22;42227;6.376;-10.782;2024-01-11T05:56:09;26.90;99.90
56322;DHT22;42227;6.376;-10.782;2024-01-11T05:58:39;27.00;1.00
56322;DHT22;42227;6.376;-10.782;2024-01-11T06:01:09;26.90;1.00
56322;DHT22;42227;6.376;-10.782;2024-01-11T06:03:38;26.80;1.00
56322;DHT22;42227;6.376;-10.782;2024-01-11T06:06:07;26.90;99.90
56322;DHT22;42227;6.376;-10.782;2024-01-11T06:08:36;27.00;99.90
56322;DHT22;42227;6.376;-10.782;2024-01-11T06:11:04;27.00;43.30
56322;DHT22;42227;6.376;-10.782;2024-01-11T06:13:33;27.20;1.00
56322;DHT22;42227;6.376;-10.782;2024-01-11T06:16:02;27.20;1.00
56322;DHT22;42227;6.376;-10.782;2024-01-11T06:18:30;27.20;1.00
56322;DHT22;42227;6.376;-10.782;2024-01-11T06:20:59;27.00;99.90
56322;DHT22;42227;6.376;-10.782;2024-01-11T06:23:27;26.90;1.00
56322;DHT22;42227;6.376;-10.782;2024-01-11T06:25:56;26.90;1.00
56322;DHT22;42227;6.376;-10.782;2024-01-11T06:28:24;26.90;1.00
56322;DHT22;42227;6.376;-10.782;2024-01-11T06:30:53;26.90;1.00
56322;DHT22;42227;6.376;-10.782;2024-01-11T06:33:29;26.90;1.00
56322;DHT22;42227;6.376;-10.782;2024-01-11T06:35:58;26.90;1.00
56322;DHT22;42227;6.376;-10.782;2024-01-11T06:38:26;26.90;47.20
56322;DHT22;42227;6.376;-10.782;2024-01-11T06:40:54;27.00;73.00
56322;DHT22;42227;6.376;-10.782;2024-01-11T06:43:23;26.90;1.00
56322;DHT22;42227;6.376;-10.782;2024-01-11T06:45:51;26.90;96.60
56322;DHT22;42227;6.376;-10.782;2024-01-11T06:48:20;26.90;99.90
56322;DHT22;42227;6.376;-10.782;2024-01-11T06:50:48;26.90;99.90
56322;DHT22;42227;6.376;-10.782;2024-01-11T06:53:19;26.90;99.90
56322;DHT22;42227;6.376;-10.782;2024-01-11T06:55:48;26.90;99.90
56322;DHT22;42227;6.376;-10.782;2024-01-11T06:58:16;27.00;99.90
56322;DHT22;42227;6.376;-10.782;2024-01-11T07:00:44;27.00;36.40
56322;DHT22;42227;6.376;-10.782;2024-01-11T07:03:13;27.10;1.00
56322;DHT22;42227;6.376;-10.782;2024-01-11T07:05:41;27.00;1.00
56322;DHT22;42227;6.376;-10.782;2024-01-11T07:08:10;27.10;1.00
56322;DHT22;42227;6.376;-10.782;2024-01-11T07:10:38;27.20;1.00
56322;DHT22;42227;6.376;-10.782;2024-01-11T07:13:06;27.20;1.00
56322;DHT22;42227;6.376;-10.782;2024-01-11T07:15:34;27.20;99.90
56322;DHT22;42227;6.376;-10.782;2024-01-11T07:18:03;27.10;1.00
56322;DHT22;42227;6.376;-10.782;2024-01-11T07:20:32;26.90;1.00
56322;DHT22;42227;6.376;-10.782;2024-01-11T07:23:01;26.90;99.90
56322;DHT22;42227;6.376;-10.782;2024-01-11T07:25:29;27.00;99.90
56322;DHT22;42227;6.376;-10.782;2024-01-11T07:27:57;27.10;78.20
56322;DHT22;42227;6.376;-10.782;2024-01-11T07:30:26;27.30;1.00
56322;DHT22;42227;6.376;-10.782;2024-01-11T07:32:55;27.20;1.00
56322;DHT22;42227;6.376;-10.782;2024-01-11T07:35:25;27.30;1.00
56322;DHT22;42227;6.376;-10.782;2024-01-11T07:37:54;27.20;99.90
56322;DHT22;42227;6.376;-10.782;2024-01-11T07:40:22;27.30;1.00
56322;DHT22;42227;6.376;-10.782;2024-01-11T07:42:51;27.30;99.90
56322;DHT22;42227;6.376;-10.782;2024-01-11T07:45:19;27.30;99.90
56322;DHT22;42227;6.376;-10.782;2024-01-11T07:47:48;27.40;99.90
56322;DHT22;42227;6.376;-10.782;2024-01-11T07:50:16;27.50;99.90
56322;DHT22;42227;6.376;-10.782;2024-01-11T07:52:44;27.50;99.90
56322;DHT22;42227;6.376;-10.782;2024-01-11T07:55:14;27.60;99.90
56322;DHT22;42227;6.376;-10.782;2024-01-11T07:57:44;27.70;99.90
56322;DHT22;42227;6.376;-10.782;2024-01-11T08:00:12;27.70;99.90
56322;DHT22;42227;6.376;-10.782;2024-01-11T08:02:41;27.80;99.90
56322;DHT22;42227;6.376;-10.782;2024-01-11T08:05:10;27.90;99.90
56322;DHT22;42227;6.376;-10.782;2024-01-11T08:07:38;27.80;50.90
56322;DHT22;42227;6.376;-10.782;2024-01-11T08:10:07;28.00;99.90
56322;DHT22;42227;6.376;-10.782;2024-01-11T08:12:36;27.90;63.90
56322;DHT22;42227;6.376;-10.782;2024-01-11T08:15:05;28.10;99.90
56322;DHT22;42227;6.376;-10.782;2024-01-11T08:17:33;28.40;1.00
56322;DHT22;42227;6.376;-10.782;2024-01-11T08:20:04;28.70;1.00
56322;DHT22;42227;6.376;-10.782;2024-01-11T08:22:32;29.20;99.90
56322;DHT22;42227;6.376;-10.782;2024-01-11T08:25:01;29.90;99.90
56322;DHT22;42227;6.376;-10.782;2024-01-11T08:27:31;30.60;1.00
56322;DHT22;42227;6.376;-10.782;2024-01-11T08:30:00;31.30;1.00
56322;DHT22;42227;6.376;-10.782;2024-01-11T08:32:28;31.80;99.90
56322;DHT22;42227;6.376;-10.782;2024-01-11T08:34:59;32.00;99.90
56322;DHT22;42227;6.376;-10.782;2024-01-11T08:37:27;31.60;99.90
56322;DHT22;42227;6.376;-10.782;2024-01-11T08:39:56;31.80;99.90
56322;DHT22;42227;6.376;-10.782;2024-01-11T08:42:24;32.30;99.90
56322;DHT22;42227;6.376;-10.782;2024-01-11T08:44:52;32.40;99.90
56322;DHT22;42227;6.376;-10.782;2024-01-11T08:47:21;32.60;99.90
56322;DHT22;42227;6.376;-10.782;2024-01-11T08:49:49;32.70;99.90
56322;DHT22;42227;6.376;-10.782;2024-01-11T08:52:17;32.60;99.90
56322;DHT22;42227;6.376;-10.782;2024-01-11T08:54:46;32.50;99.90
56322;DHT22;42227;6.376;-10.782;2024-01-11T08:57:14;32.80;99.90
56322;DHT22;42227;6.376;-10.782;2024-01-11T08:59:42;32.50;99.90
56322;DHT22;42227;6.376;-10.782;2024-01-11T09:02:14;32.50;99.90
56322;DHT22;42227;6.376;-10.782;2024-01-11T09:04:47;31.50;99.90
56322;DHT22;42227;6.376;-10.782;2024-01-11T09:07:15;31.20;99.90
56322;DHT22;42227;6.376;-10.782;2024-01-11T09:09:44;31.20;99.90
56322;DHT22;42227;6.376;-10.782;2024-01-11T09:12:23;31.10;99.90
56322;DHT22;42227;6.376;-10.782;2024-01-11T09:14:51;31.20;99.90
56322;DHT22;42227;6.376;-10.782;2024-01-11T09:17:20;31.60;99.90
56322;DHT22;42227;6.376;-10.782;2024-01-11T09:19:48;31.90;99.90
56322;DHT22;42227;6.376;-10.782;2024-01-11T09:22:17;31.70;99.90
56322;DHT22;42227;6.376;-10.782;2024-01-11T09:24:45;31.30;99.90
56322;DHT22;42227;6.376;-10.782;2024-01-11T09:27:13;31.00;99.90
56322;DHT22;42227;6.376;-10.782;2024-01-11T09:29:45;30.80;99.90
56322;DHT22;42227;6.376;-10.782;2024-01-11T09:32:14;30.80;99.90
56322;DHT22;42227;6.376;-10.782;2024-01-11T09:34:42;30.80;99.90
56322;DHT22;42227;6.376;-10.782;2024-01-11T09:37:11;30.30;99.90
56322;DHT22;42227;6.376;-10.782;2024-01-11T09:39:39;30.30;99.90
56322;DHT22;42227;6.376;-10.782;2024-01-11T09:42:08;30.30;99.90
56322;DHT22;42227;6.376;-10.782;2024-01-11T09:44:37;30.50;99.90
56322;DHT22;42227;6.376;-10.782;2024-01-11T09:47:08;30.30;99.90
56322;DHT22;42227;6.376;-10.782;2024-01-11T09:49:44;30.30;99.90
56322;DHT22;42227;6.376;-10.782;2024-01-11T09:52:13;30.30;99.90
56322;DHT22;42227;6.376;-10.782;2024-01-11T09:54:43;30.30;99.90
56322;DHT22;42227;6.376;-10.782;2024-01-11T09:57:11;30.30;99.90
56322;DHT22;42227;6.376;-10.782;2024-01-11T09:59:40;30.10;99.90
56322;DHT22;42227;6.376;-10.782;2024-01-11T10:02:10;29.90;99.90
56322;DHT22;42227;6.376;-10.782;2024-01-11T10:04:42;29.80;99.90
56322;DHT22;42227;6.376;-10.782;2024-01-11T10:07:13;29.80;99.90
56322;DHT22;42227;6.376;-10.782;2024-01-11T10:09:44;29.80;99.90
56322;DHT22;42227;6.376;-10.782;2024-01-11T10:12:12;29.80;99.90
56322;DHT22;42227;6.376;-10.782;2024-01-11T10:14:40;29.70;99.90
56322;DHT22;42227;6.376;-10.782;2024-01-11T10:17:09;29.60;99.90
56322;DHT22;42227;6.376;-10.782;2024-01-11T10:19:44;29.40;99.90
56322;DHT22;42227;6.376;-10.782;2024-01-11T10:22:13;29.50;99.90
56322;DHT22;42227;6.376;-10.782;2024-01-11T10:24:41;29.40;99.90
56322;DHT22;42227;6.376;-10.782;2024-01-11T10:27:10;29.30;1.00
56322;DHT22;42227;6.376;-10.782;2024-01-11T10:29:39;29.20;99.90
56322;DHT22;42227;6.376;-10.782;2024-01-11T10:32:07;29.20;99.90
56322;DHT22;42227;6.376;-10.782;2024-01-11T10:34:35;29.20;99.90
56322;DHT22;42227;6.376;-10.782;2024-01-11T10:37:04;29.30;99.90
56322;DHT22;42227;6.376;-10.782;2024-01-11T10:39:33;29.40;99.90
56322;DHT22;42227;6.376;-10.782;2024-01-11T10:42:06;29.60;99.90
56322;DHT22;42227;6.376;-10.782;2024-01-11T10:44:39;29.80;99.90
56322;DHT22;42227;6.376;-10.782;2024-01-11T10:47:10;30.20;99.90
56322;DHT22;42227;6.376;-10.782;2024-01-11T10:49:40;30.50;99.90
56322;DHT22;42227;6.376;-10.782;2024-01-11T10:52:12;30.40;99.90
56322;DHT22;42227;6.376;-10.782;2024-01-11T10:54:42;30.30;99.90
56322;DHT22;42227;6.376;-10.782;2024-01-11T10:57:12;30.30;99.90
56322;DHT22;42227;6.376;-10.782;2024-01-11T10:59:41;30.30;99.90
56322;DHT22;42227;6.376;-10.782;2024-01-11T11:02:12;30.10;99.90
56322;DHT22;42227;6.376;-10.782;2024-01-11T11:04:42;30.10;99.90
56322;DHT22;42227;6.376;-10.782;2024-01-11T11:07:11;30.20;99.90
56322;DHT22;42227;6.376;-10.782;2024-01-11T11:09:41;30.20;99.90
56322;DHT22;42227;6.376;-10.782;2024-01-11T11:12:11;30.50;99.90
56322;DHT22;42227;6.376;-10.782;2024-01-11T11:14:40;30.70;99.90
56322;DHT22;42227;6.376;-10.782;2024-01-11T11:17:09;30.70;99.90
56322;DHT22;42227;6.376;-10.782;2024-01-11T11:19:38;30.80;99.90
56322;DHT22;42227;6.376;-10.782;2024-01-11T11:22:06;30.90;99.90
56322;DHT22;42227;6.376;-10.782;2024-01-11T11:24:35;30.90;99.90
56322;DHT22;42227;6.376;-10.782;2024-01-11T11:27:03;30.80;99.90
56322;DHT22;42227;6.376;-10.782;2024-01-11T11:29:33;30.70;99.90
56322;DHT22;42227;6.376;-10.782;2024-01-11T11:32:02;30.80;99.90
56322;DHT22;42227;6.376;-10.782;2024-01-11T11:34:41;31.10;99.90
56322;DHT22;42227;6.376;-10.782;2024-01-11T11:37:10;31.40;99.90
56322;DHT22;42227;6.376;-10.782;2024-01-11T11:39:41;31.40;99.90
56322;DHT22;42227;6.376;-10.782;2024-01-11T11:42:10;31.30;99.90
56322;DHT22;42227;6.376;-10.782;2024-01-11T11:44:51;31.30;99.90
56322;DHT22;42227;6.376;-10.782;2024-01-11T11:47:21;31.30;99.90
56322;DHT22;42227;6.376;-10.782;2024-01-11T11:50:11;31.00;99.90
56322;DHT22;42227;6.376;-10.782;2024-01-11T11:52:40;30.80;99.90
56322;DHT22;42227;6.376;-10.782;2024-01-11T11:55:09;30.60;99.90
56322;DHT22;42227;6.376;-10.782;2024-01-11T11:57:38;30.70;99.90
56322;DHT22;42227;6.376;-10.782;2024-01-11T12:00:07;30.70;99.90
56322;DHT22;42227;6.376;-10.782;2024-01-11T12:02:38;30.90;99.90
56322;DHT22;42227;6.376;-10.782;2024-01-11T12:05:07;31.10;99.90
56322;DHT22;42227;6.376;-10.782;2024-01-11T12:07:36;31.10;99.90
56322;DHT22;42227;6.376;-10.782;2024-01-11T12:10:05;31.00;99.90
56322;DHT22;42227;6.376;-10.782;2024-01-11T12:12:35;30.90;99.90
56322;DHT22;42227;6.376;-10.782;2024-01-11T12:15:05;30.80;99.90
56322;DHT22;42227;6.376;-10.782;2024-01-11T12:17:35;30.70;99.90
56322;DHT22;42227;6.376;-10.782;2024-01-11T12:20:04;30.60;99.90
56322;DHT22;42227;6.376;-10.782;2024-01-11T12:22:34;30.40;99.90
56322;DHT22;42227;6.376;-10.782;2024-01-11T12:25:02;30.20;99.90
56322;DHT22;42227;6.376;-10.782;2024-01-11T12:27:31;30.10;99.90
56322;DHT22;42227;6.376;-10.782;2024-01-11T12:30:01;30.00;99.90
56322;DHT22;42227;6.376;-10.782;2024-01-11T12:32:30;29.80;99.90
56322;DHT22;42227;6.376;-10.782;2024-01-11T12:34:59;29.70;99.90
56322;DHT22;42227;6.376;-10.782;2024-01-11T12:37:30;29.70;99.90
56322;DHT22;42227;6.376;-10.782;2024-01-11T12:39:59;29.60;99.90
56322;DHT22;42227;6.376;-10.782;2024-01-11T12:42:27;29.60;99.90
56322;DHT22;42227;6.376;-10.782;2024-01-11T12:44:55;29.50;99.90
56322;DHT22;42227;6.376;-10.782;2024-01-11T12:47:26;29.50;99.90
56322;DHT22;42227;6.376;-10.782;2024-01-11T12:49:55;29.70;1.00
56322;DHT22;42227;6.376;-10.782;2024-01-11T12:52:23;29.80;1.00
56322;DHT22;42227;6.376;-10.782;2024-01-11T12:54:52;29.70;16.50
56322;DHT22;42227;6.376;-10.782;2024-01-11T12:57:21;29.70;99.90
56322;DHT22;42227;6.376;-10.782;2024-01-11T12:59:50;29.60;99.90
56322;DHT22;42227;6.376;-10.782;2024-01-11T13:02:18;29.40;47.30
56322;DHT22;42227;6.376;-10.782;2024-01-11T13:04:47;29.40;99.90
56322;DHT22;42227;6.376;-10.782;2024-01-11T13:07:15;29.30;99.90
56322;DHT22;42227;6.376;-10.782;2024-01-11T13:09:44;29.20;99.90
56322;DHT22;42227;6.376;-10.782;2024-01-11T13:12:12;29.10;99.90
56322;DHT22;42227;6.376;-10.782;2024-01-11T13:14:40;29.00;99.90
56322;DHT22;42227;6.376;-10.782;2024-01-11T13:17:09;29.00;72.50
56322;DHT22;42227;6.376;-10.782;2024-01-11T13:19:37;29.00;99.90
56322;DHT22;42227;6.376;-10.782;2024-01-11T13:22:06;29.00;99.90
56322;DHT22;42227;6.376;-10.782;2024-01-11T13:24:34;29.00;99.90
56322;DHT22;42227;6.376;-10.782;2024-01-11T13:27:02;29.10;99.90
56322;DHT22;42227;6.376;-10.782;2024-01-11T13:29:31;29.30;99.90
56322;DHT22;42227;6.376;-10.782;2024-01-11T13:31:59;29.50;99.90
56322;DHT22;42227;6.376;-10.782;2024-01-11T13:34:32;29.50;99.90
56322;DHT22;42227;6.376;-10.782;2024-01-11T13:37:00;29.80;99.90
56322;DHT22;42227;6.376;-10.782;2024-01-11T13:39:28;29.90;99.90
56322;DHT22;42227;6.376;-10.782;2024-01-11T13:41:57;30.00;1.00
56322;DHT22;42227;6.376;-10.782;2024-01-11T13:44:25;30.10;1.00
56322;DHT22;42227;6.376;-10.782;2024-01-11T13:46:54;30.30;1.00
56322;DHT22;42227;6.376;-10.782;2024-01-11T13:49:22;30.50;1.00
56322;DHT22;42227;6.376;-10.782;2024-01-11T13:51:51;30.70;99.90
56322;DHT22;42227;6.376;-10.782;2024-01-11T13:54:31;30.70;99.90
56322;DHT22;42227;6.376;-10.782;2024-01-11T13:56:59;30.70;99.90
56322;DHT22;42227;6.376;-10.782;2024-01-11T13:59:28;30.70;99.90
56322;DHT22;42227;6.376;-10.782;2024-01-11T14:02:00;30.70;99.90
56322;DHT22;42227;6.376;-10.782;2024-01-11T14:04:29;30.70;99.90
56322;DHT22;42227;6.376;-10.782;2024-01-11T14:06:57;30.60;99.90
56322;DHT22;42227;6.376;-10.782;2024-01-11T14:09:26;30.80;99.90
56322;DHT22;42227;6.376;-10.782;2024-01-11T14:11:55;30.90;99.90
56322;DHT22;42227;6.376;-10.782;2024-01-11T14:14:23;31.00;99.90
56322;DHT22;42227;6.376;-10.782;2024-01-11T14:16:52;31.20;99.90
56322;DHT22;42227;6.376;-10.782;2024-01-11T14:19:20;31.20;99.90
56322;DHT22;42227;6.376;-10.782;2024-01-11T14:21:49;31.00;99.90
56322;DHT22;42227;6.376;-10.782;2024-01-11T14:24:17;30.80;99.90
56322;DHT22;42227;6.376;-10.782;2024-01-11T14:26:56;30.80;99.90
56322;DHT22;42227;6.376;-10.782;2024-01-11T14:29:24;30.90;99.90
56322;DHT22;42227;6.376;-10.782;2024-01-11T14:31:53;30.90;99.90
56322;DHT22;42227;6.376;-10.782;2024-01-11T14:34:21;31.00;99.90
56322;DHT22;42227;6.376;-10.782;2024-01-11T14:36:52;30.90;99.90
56322;DHT22;42227;6.376;-10.782;2024-01-11T14:39:26;31.00;99.90
56322;DHT22;42227;6.376;-10.782;2024-01-11T14:41:54;31.10;99.90
56322;DHT22;42227;6.376;-10.782;2024-01-11T14:44:22;31.10;99.90
56322;DHT22;42227;6.376;-10.782;2024-01-11T14:46:51;31.30;99.90
56322;DHT22;42227;6.376;-10.782;2024-01-11T14:49:19;31.40;99.90
56322;DHT22;42227;6.376;-10.782;2024-01-11T14:51:49;31.40;99.90
56322;DHT22;42227;6.376;-10.782;2024-01-11T14:54:17;31.10;99.90
56322;DHT22;42227;6.376;-10.782;2024-01-11T14:56:46;31.20;99.90
56322;DHT22;42227;6.376;-10.782;2024-01-11T14:59:15;31.20;99.90
56322;DHT22;42227;6.376;-10.782;2024-01-11T15:01:43;31.10;99.90
56322;DHT22;42227;6.376;-10.782;2024-01-11T15:04:13;31.00;99.90
56322;DHT22;42227;6.376;-10.782;2024-01-11T15:06:41;31.10;99.90
56322;DHT22;42227;6.376;-10.782;2024-01-11T15:09:10;31.10;99.90
56322;DHT22;42227;6.376;-10.782;2024-01-11T15:11:39;31.10;99.90
56322;DHT22;42227;6.376;-10.782;2024-01-11T15:14:08;31.10;95.00
56322;DHT22;42227;6.376;-10.782;2024-01-11T15:16:36;31.20;99.90
56322;DHT22;42227;6.376;-10.782;2024-01-11T15:19:05;31.10;99.90
56322;DHT22;42227;6.376;-10.782;2024-01-11T15:21:33;31.10;99.90
56322;DHT22;42227;6.376;-10.782;2024-01-11T15:24:06;31.20;99.90
56322;DHT22;42227;6.376;-10.782;2024-01-11T15:26:34;31.20;99.90
56322;DHT22;42227;6.376;-10.782;2024-01-11T15:29:03;31.20;99.90
56322;DHT22;42227;6.376;-10.782;2024-01-11T15:31:31;31.10;99.90